Time;durP1;ratioP1;P1;durP2;ratioP2;P2;SDS_P1;SDS_P2;PMS_P1;PMS_P2;Temp;Humidity;BMP_temperature;BMP_pressure;BME280_temperature;BME280_humidity;BME280_pressure;Samples;Min_cycle;Max_cycle;Signal;HPM_P1;HPM_P2
2022/03/05 00:02:13;;;;;;;42.80;26.50;;;;;;;-0.91;87.91;96917.92;107557;1273;40044;-74
2022/03/05 00:04:44;;;;;;;42.30;26.80;;;;;;;-0.92;87.90;96917.77;107587;1273;38700;-73
2022/03/05 00:07:15;;;;;;;40.80;26.30;;;;;;;-0.93;87.83;96920.70;107594;1273;39157;-73
2022/03/05 00:09:47;;;;;;;44.10;27.00;;;;;;;-0.95;87.97;96920.89;107603;1273;40803;-74
2022/03/05 00:12:17;;;;;;;41.60;26.30;;;;;;;-0.95;88.14;96919.69;107595;1273;40700;-73
2022/03/05 00:14:48;;;;;;;39.90;25.50;;;;;;;-0.95;87.94;96919.38;107571;1273;43565;-73
2022/03/05 00:17:19;;;;;;;42.50;25.10;;;;;;;-0.97;88.11;96918.17;107559;1273;66049;-73
2022/03/05 00:19:50;;;;;;;41.50;25.60;;;;;;;-0.99;88.02;96917.75;107542;1273;39016;-73
2022/03/05 00:22:21;;;;;;;36.70;23.20;;;;;;;-1.01;88.05;96918.18;107605;1273;32970;-73
2022/03/05 00:24:52;;;;;;;34.50;21.80;;;;;;;-0.99;88.41;96920.70;107474;1274;41489;-73
2022/03/05 00:27:23;;;;;;;43.70;24.50;;;;;;;-0.99;88.16;96921.04;107621;1273;40384;-73
2022/03/05 00:29:55;;;;;;;40.00;24.70;;;;;;;-0.98;88.02;96921.16;107546;1273;49343;-73
2022/03/05 00:32:25;;;;;;;37.30;23.30;;;;;;;-0.99;88.22;96920.03;107500;1273;38561;-73
2022/03/05 00:34:56;;;;;;;37.10;24.70;;;;;;;-0.99;88.10;96917.04;107571;1273;41365;-73
2022/03/05 00:37:27;;;;;;;36.70;24.20;;;;;;;-0.96;88.45;96915.58;107584;1273;42828;-73
2022/03/05 00:39:58;;;;;;;40.80;24.30;;;;;;;-0.93;88.32;96916.17;107627;1271;26859;-73
2022/03/05 00:42:29;;;;;;;39.40;25.60;;;;;;;-0.92;88.48;96917.45;107626;1273;28895;-73
2022/03/05 00:45:00;;;;;;;42.00;24.90;;;;;;;-0.93;88.38;96911.96;107567;1274;44044;-73
2022/03/05 00:47:31;;;;;;;41.20;25.80;;;;;;;-0.93;88.31;96910.77;107613;1274;64959;-73
2022/03/05 00:50:02;;;;;;;38.20;25.10;;;;;;;-0.94;88.37;96912.52;107624;1273;31295;-73
2022/03/05 00:52:33;;;;;;;43.70;25.00;;;;;;;-0.94;88.24;96910.94;107626;1273;46182;-73
2022/03/05 00:55:05;;;;;;;38.90;24.20;;;;;;;-0.94;88.41;96907.77;107578;1271;95962;-73
2022/03/05 00:57:36;;;;;;;39.30;25.60;;;;;;;-0.94;88.41;96910.00;107736;1273;43950;-73
2022/03/05 01:00:12;;;;;;;38.90;24.70;;;;;;;-0.95;88.57;96910.80;107611;1272;37606;-73
2022/03/05 01:02:43;;;;;;;41.20;25.80;;;;;;;-0.95;88.55;96910.00;107610;1272;45892;-74
2022/03/05 01:05:14;;;;;;;44.30;26.50;;;;;;;-0.95;88.33;96909.23;107605;1274;40197;-74
2022/03/05 01:07:45;;;;;;;41.80;26.50;;;;;;;-0.95;88.41;96911.53;107630;1273;31603;-73
2022/03/05 01:10:16;;;;;;;44.10;27.00;;;;;;;-0.95;88.22;96911.52;107514;1273;41409;-73
2022/03/05 01:12:47;;;;;;;47.90;27.50;;;;;;;-0.96;88.48;96912.53;107540;1273;38038;-73
2022/03/05 01:15:19;;;;;;;45.20;27.00;;;;;;;-0.97;88.53;96910.98;107564;1273;51441;-73
2022/03/05 01:17:50;;;;;;;43.70;26.80;;;;;;;-0.97;88.48;96910.77;107540;1273;40198;-73
2022/03/05 01:20:21;;;;;;;42.50;28.00;;;;;;;-0.96;88.63;96909.65;107623;1274;42517;-74
2022/03/05 01:22:52;;;;;;;41.10;26.60;;;;;;;-0.96;88.59;96910.17;107622;1274;39166;-73
2022/03/05 01:25:23;;;;;;;51.80;28.30;;;;;;;-0.96;88.40;96905.61;107583;1274;44712;-74
2022/03/05 01:27:54;;;;;;;50.90;28.70;;;;;;;-0.96;88.59;96903.40;107626;1271;33632;-73
2022/03/05 01:30:25;;;;;;;46.30;28.40;;;;;;;-0.96;88.47;96900.01;107623;1274;30956;-73
2022/03/05 01:32:56;;;;;;;42.20;28.20;;;;;;;-0.97;88.54;96901.04;107586;1273;34740;-73
2022/03/05 01:35:27;;;;;;;42.90;28.00;;;;;;;-0.96;88.47;96899.92;107594;1275;41462;-74
2022/03/05 01:37:58;;;;;;;45.20;28.40;;;;;;;-0.95;88.55;96899.60;107626;1273;31075;-73
2022/03/05 01:40:29;;;;;;;46.80;29.20;;;;;;;-0.95;88.50;96900.77;107600;1275;38266;-73
2022/03/05 01:42:59;;;;;;;49.50;30.40;;;;;;;-0.93;88.56;96901.44;107608;1274;31142;-73
2022/03/05 01:45:31;;;;;;;45.90;29.00;;;;;;;-0.93;88.62;96898.80;107590;1274;42914;-74
2022/03/05 01:48:02;;;;;;;44.60;28.70;;;;;;;-0.92;88.60;96902.80;107536;1274;40082;-73
2022/03/05 01:50:33;;;;;;;47.20;28.90;;;;;;;-0.92;88.47;96897.55;107613;1272;38400;-73
2022/03/05 01:53:04;;;;;;;45.90;29.00;;;;;;;-0.92;88.62;96895.75;107621;1274;43400;-74
2022/03/05 01:55:35;;;;;;;44.90;28.50;;;;;;;-0.95;88.47;96891.02;107581;1272;38970;-73
2022/03/05 01:58:06;;;;;;;46.80;29.00;;;;;;;-0.94;88.43;96899.52;107518;1274;179336;-74
2022/03/05 02:00:37;;;;;;;49.40;29.70;;;;;;;-0.97;88.61;96897.11;107592;1274;28741;-74
2022/03/05 02:03:08;;;;;;;48.00;29.70;;;;;;;-0.98;88.45;96894.19;107617;1274;40525;-73
2022/03/05 02:05:39;;;;;;;50.20;29.60;;;;;;;-0.98;88.82;96894.98;107573;1274;71613;-73
2022/03/05 02:08:10;;;;;;;43.80;28.10;;;;;;;-1.00;88.69;96890.13;107397;1274;190044;-74
2022/03/05 02:10:42;;;;;;;45.30;30.60;;;;;;;-0.99;88.72;96889.72;107555;1273;60629;-74
2022/03/05 02:13:13;;;;;;;44.40;29.00;;;;;;;-0.98;88.84;96891.83;107556;1273;41202;-74
2022/03/05 02:15:44;;;;;;;50.40;30.00;;;;;;;-0.96;88.71;96892.30;107582;1274;32880;-74
2022/03/05 02:18:15;;;;;;;46.30;28.60;;;;;;;-0.96;88.85;96887.71;107649;1274;38491;-74
2022/03/05 02:20:46;;;;;;;45.80;29.20;;;;;;;-0.96;88.74;96884.75;107607;1274;52602;-74
2022/03/05 02:23:16;;;;;;;44.90;29.30;;;;;;;-0.96;89.02;96882.30;107598;1273;33203;-74
2022/03/05 02:25:55;;;;;;;46.30;28.60;;;;;;;-0.97;88.96;96882.51;107555;1274;36301;-74
2022/03/05 02:28:27;;;;;;;46.20;27.70;;;;;;;-0.99;88.92;96886.85;107596;1273;32913;-74
2022/03/05 02:30:59;;;;;;;41.70;26.80;;;;;;;-1.00;88.89;96887.61;107616;1274;28262;-73
2022/03/05 02:33:30;;;;;;;44.80;27.80;;;;;;;-1.00;88.90;96893.08;107605;1274;57090;-73
2022/03/05 02:36:01;;;;;;;46.60;29.70;;;;;;;-0.99;88.87;96894.40;107613;1272;42528;-74
2022/03/05 02:38:32;;;;;;;44.20;28.70;;;;;;;-0.99;88.95;96896.95;107613;1274;47282;-73
2022/03/05 02:41:03;;;;;;;47.20;28.80;;;;;;;-0.99;88.72;96895.17;107627;1274;33822;-73
2022/03/05 02:43:34;;;;;;;48.10;30.80;;;;;;;-0.99;88.91;96895.41;107665;1274;37865;-74
2022/03/05 02:46:05;;;;;;;49.90;30.00;;;;;;;-1.00;88.87;96895.45;107633;1273;43586;-73
2022/03/05 02:48:36;;;;;;;45.50;28.40;;;;;;;-0.98;89.18;96898.23;107589;1274;55883;-74
2022/03/05 02:51:06;;;;;;;50.50;30.30;;;;;;;-0.98;89.01;96900.15;107639;1274;32356;-74
2022/03/05 02:53:37;;;;;;;43.20;28.30;;;;;;;-0.99;89.01;96901.65;107661;1273;39130;-73
2022/03/05 02:56:09;;;;;;;50.20;31.50;;;;;;;-1.01;89.00;96904.98;107591;1274;41809;-73
2022/03/05 02:58:40;;;;;;;59.00;36.10;;;;;;;-1.01;88.99;96905.17;107527;1274;67782;-74
2022/03/05 03:01:11;;;;;;;51.10;32.30;;;;;;;-1.00;89.25;96904.98;107621;1273;31357;-74
2022/03/05 03:03:42;;;;;;;48.10;30.20;;;;;;;-1.00;89.25;96909.94;107579;1274;43198;-74
2022/03/05 03:06:13;;;;;;;51.50;31.60;;;;;;;-1.00;89.05;96908.66;107619;1273;42672;-74
2022/03/05 03:08:44;;;;;;;53.00;33.40;;;;;;;-0.99;89.29;96909.83;107619;1273;45380;-74
2022/03/05 03:11:14;;;;;;;49.50;33.10;;;;;;;-1.00;89.24;96907.14;107565;1273;48836;-74
2022/03/05 03:13:45;;;;;;;53.60;32.40;;;;;;;-0.99;89.56;96911.23;107603;1274;41250;-74
2022/03/05 03:16:16;;;;;;;57.40;34.00;;;;;;;-1.00;89.39;96909.58;107637;1273;32908;-74
2022/03/05 03:18:47;;;;;;;51.80;31.90;;;;;;;-1.01;89.41;96911.17;107531;1273;37569;-74
2022/03/05 03:21:18;;;;;;;56.00;33.70;;;;;;;-1.03;89.72;96910.70;107598;1273;46723;-74
2022/03/05 03:23:49;;;;;;;50.20;32.40;;;;;;;-1.05;89.68;96912.74;107593;1274;38813;-73
2022/03/05 03:26:20;;;;;;;52.20;32.80;;;;;;;-1.07;89.65;96911.70;107587;1274;42390;-74
2022/03/05 03:28:51;;;;;;;52.70;33.00;;;;;;;-1.08;89.67;96909.77;107583;1273;41103;-74
2022/03/05 03:31:22;;;;;;;54.90;34.70;;;;;;;-1.09;89.82;96910.74;107608;1273;42159;-73
2022/03/05 03:33:52;;;;;;;53.70;34.30;;;;;;;-1.08;89.83;96910.46;107612;1274;37378;-74
2022/03/05 03:36:23;;;;;;;55.60;34.00;;;;;;;-1.08;89.81;96911.38;107562;1273;40712;-73
2022/03/05 03:38:54;;;;;;;58.00;36.40;;;;;;;-1.11;89.86;96912.74;107518;1273;42370;-74
2022/03/05 03:41:26;;;;;;;63.70;37.30;;;;;;;-1.12;89.96;96913.41;107605;1273;40769;-73
2022/03/05 03:43:57;;;;;;;57.70;36.30;;;;;;;-1.12;89.83;96912.41;107637;1273;30282;-73
2022/03/05 03:46:28;;;;;;;54.90;36.00;;;;;;;-1.14;89.70;96915.11;107621;1274;29998;-73
2022/03/05 03:48:59;;;;;;;59.90;34.80;;;;;;;-1.14;90.07;96919.75;107613;1270;37181;-74
2022/03/05 03:51:29;;;;;;;59.90;36.30;;;;;;;-1.15;90.09;96917.23;107592;1273;41043;-73
2022/03/05 03:54:01;;;;;;;55.60;35.20;;;;;;;-1.15;90.04;96918.67;107582;1273;34786;-74
2022/03/05 03:56:32;;;;;;;58.40;36.70;;;;;;;-1.15;90.25;96919.52;107552;1274;36046;-74
2022/03/05 03:59:02;;;;;;;58.50;36.20;;;;;;;-1.16;90.17;96919.35;107526;1273;34406;-74
2022/03/05 04:01:34;;;;;;;53.80;33.40;;;;;;;-1.18;90.38;96921.43;107620;1274;30718;-73
2022/03/05 04:04:05;;;;;;;51.20;33.10;;;;;;;-1.18;90.01;96920.48;107589;1274;30583;-74
2022/03/05 04:09:20;;;;;;;53.60;33.00;;;;;;;-1.22;90.18;96921.15;107584;1273;30438;-74
2022/03/05 04:11:51;;;;;;;56.10;34.70;;;;;;;-1.23;90.22;96920.91;107594;1274;30608;-74
2022/03/05 04:14:22;;;;;;;49.50;32.40;;;;;;;-1.26;90.17;96921.91;107603;1274;33616;-74
2022/03/05 04:16:53;;;;;;;52.90;33.10;;;;;;;-1.27;90.33;96921.77;107594;1273;32216;-74
2022/03/05 04:19:24;;;;;;;53.30;34.90;;;;;;;-1.28;90.16;96925.16;107586;1273;30461;-74
2022/03/05 04:21:55;;;;;;;51.30;32.90;;;;;;;-1.29;90.09;96925.92;107568;1274;38184;-74
2022/03/05 04:24:26;;;;;;;48.50;31.20;;;;;;;-1.30;90.00;96921.44;107590;1274;34331;-73
2022/03/05 04:26:57;;;;;;;49.40;32.40;;;;;;;-1.32;90.13;96925.98;107585;1273;28420;-74
2022/03/05 04:29:28;;;;;;;51.80;32.70;;;;;;;-1.34;90.26;96922.91;107607;1273;31217;-74
2022/03/05 04:31:59;;;;;;;46.30;29.50;;;;;;;-1.33;90.16;96930.55;107560;1274;34714;-74
2022/03/05 04:34:30;;;;;;;49.00;32.40;;;;;;;-1.34;90.22;96927.83;107615;1274;30948;-73
2022/03/05 04:37:01;;;;;;;44.80;30.30;;;;;;;-1.35;90.17;96933.48;107591;1273;30082;-74
2022/03/05 04:39:32;;;;;;;48.40;31.70;;;;;;;-1.36;89.98;96935.54;107598;1273;33118;-73
2022/03/05 04:42:03;;;;;;;51.30;31.50;;;;;;;-1.37;90.28;96937.88;107587;1273;29213;-74
2022/03/05 04:44:33;;;;;;;48.00;31.40;;;;;;;-1.36;90.21;96943.71;107598;1273;41359;-73
2022/03/05 04:47:05;;;;;;;49.40;31.70;;;;;;;-1.38;90.12;96941.30;107577;1273;42640;-73
2022/03/05 04:49:36;;;;;;;51.30;30.90;;;;;;;-1.36;90.16;96944.44;107625;1273;45153;-74
2022/03/05 04:52:07;;;;;;;50.90;30.60;;;;;;;-1.37;90.21;96943.67;107651;1273;44733;-74
2022/03/05 04:54:38;;;;;;;50.10;31.60;;;;;;;-1.38;90.19;96945.34;107615;1273;34806;-73
2022/03/05 04:57:09;;;;;;;49.30;31.80;;;;;;;-1.37;90.26;96950.47;107620;1273;43617;-74
2022/03/05 04:59:40;;;;;;;45.70;30.00;;;;;;;-1.38;90.11;96948.59;107576;1273;46744;-74
2022/03/05 05:02:11;;;;;;;50.50;31.60;;;;;;;-1.38;90.31;96948.66;107599;1273;40886;-74
2022/03/05 05:04:42;;;;;;;46.90;30.80;;;;;;;-1.38;90.10;96947.63;107594;1273;32556;-73
2022/03/05 05:07:13;;;;;;;45.50;30.90;;;;;;;-1.39;90.26;96948.63;107590;1273;43864;-74
2022/03/05 05:09:44;;;;;;;48.90;30.80;;;;;;;-1.41;90.25;96950.92;107631;1273;46067;-73
2022/03/05 05:12:15;;;;;;;49.70;32.20;;;;;;;-1.42;90.28;96944.74;107579;1273;40665;-74
2022/03/05 05:14:46;;;;;;;48.40;30.30;;;;;;;-1.41;90.05;96949.23;107532;1273;39759;-74
2022/03/05 05:17:17;;;;;;;48.60;29.80;;;;;;;-1.40;90.31;96950.69;107582;1273;41363;-74
2022/03/05 05:19:48;;;;;;;50.10;31.10;;;;;;;-1.40;90.53;96952.05;107518;1273;50499;-74
2022/03/05 05:22:19;;;;;;;49.70;31.00;;;;;;;-1.41;90.36;96951.40;107588;1271;41070;-74
2022/03/05 05:24:50;;;;;;;46.00;30.40;;;;;;;-1.42;90.15;96953.35;107619;1273;34298;-74
2022/03/05 05:27:21;;;;;;;47.10;30.00;;;;;;;-1.44;90.53;96959.42;107599;1273;32517;-73
2022/03/05 05:29:52;;;;;;;46.50;29.60;;;;;;;-1.43;90.43;96960.71;107543;1273;44222;-74
2022/03/05 05:32:23;;;;;;;47.40;31.50;;;;;;;-1.44;90.11;96963.03;107526;1274;30289;-74
2022/03/05 05:34:54;;;;;;;74.00;40.50;;;;;;;-1.44;90.17;96964.86;107599;1274;34080;-73
2022/03/05 05:37:25;;;;;;;73.20;39.90;;;;;;;-1.44;90.42;96965.83;107606;1274;31594;-73
2022/03/05 05:39:57;;;;;;;152.60;70.30;;;;;;;-1.43;90.51;96968.30;107520;1274;43317;-74
2022/03/05 05:42:28;;;;;;;86.80;49.20;;;;;;;-1.42;90.26;96968.55;107577;1273;36600;-73
2022/03/05 05:44:59;;;;;;;70.60;41.00;;;;;;;-1.42;90.40;96970.23;107610;1274;32302;-74
2022/03/05 05:47:30;;;;;;;66.80;39.00;;;;;;;-1.41;90.33;96968.96;107544;1274;42545;-74
2022/03/05 05:50:01;;;;;;;54.60;33.70;;;;;;;-1.43;90.32;96971.95;107549;1273;27549;-73
2022/03/05 05:52:32;;;;;;;400.00;159.20;;;;;;;-1.44;90.55;96975.86;107572;1274;38552;-74
2022/03/05 05:55:03;;;;;;;136.00;70.30;;;;;;;-1.45;90.53;96977.02;107537;1274;36211;-74
2022/03/05 05:57:34;;;;;;;90.60;55.10;;;;;;;-1.45;90.40;96976.54;107565;1274;36358;-74
2022/03/05 06:00:07;;;;;;;63.70;39.70;;;;;;;-1.44;90.51;96980.75;107575;1273;41515;-74
2022/03/05 06:02:38;;;;;;;60.80;36.90;;;;;;;-1.43;90.43;96984.35;107670;1273;37328;-73
2022/03/05 06:05:10;;;;;;;50.90;35.00;;;;;;;-1.43;90.37;96986.75;107619;1274;41055;-73
2022/03/05 06:07:40;;;;;;;44.80;30.30;;;;;;;-1.42;90.45;96991.67;107590;1274;42510;-74
2022/03/05 06:10:12;;;;;;;50.10;31.90;;;;;;;-1.42;90.37;96990.95;107551;1273;42772;-74
2022/03/05 06:12:44;;;;;;;47.30;31.10;;;;;;;-1.43;90.46;96995.08;107550;1273;42735;-73
2022/03/05 06:15:16;;;;;;;48.80;31.80;;;;;;;-1.45;90.40;96995.63;107579;1273;41913;-74
2022/03/05 06:17:47;;;;;;;50.70;33.70;;;;;;;-1.46;90.37;96997.14;107580;1273;33934;-74
2022/03/05 06:20:18;;;;;;;47.30;31.80;;;;;;;-1.46;90.46;96996.79;107566;1273;32892;-73
2022/03/05 06:22:49;;;;;;;48.40;32.60;;;;;;;-1.45;90.30;97002.79;107550;1273;44158;-73
2022/03/05 06:25:20;;;;;;;51.00;32.70;;;;;;;-1.46;90.29;97000.39;107552;1273;44337;-74
2022/03/05 06:27:51;;;;;;;43.50;29.90;;;;;;;-1.47;90.38;97005.06;107581;1273;37185;-73
2022/03/05 06:30:22;;;;;;;48.40;30.80;;;;;;;-1.47;90.22;97004.90;107535;1273;39853;-73
2022/03/05 06:32:54;;;;;;;43.90;27.80;;;;;;;-1.48;90.31;97005.85;107532;1274;55265;-74
2022/03/05 06:35:26;;;;;;;45.60;29.60;;;;;;;-1.49;90.31;97004.94;107532;1274;38848;-74
2022/03/05 06:37:58;;;;;;;42.10;27.60;;;;;;;-1.49;90.21;97011.02;107551;1273;43340;-73
2022/03/05 06:40:29;;;;;;;41.50;28.20;;;;;;;-1.47;90.08;97013.90;107574;1273;43735;-73
2022/03/05 06:43:00;;;;;;;47.80;31.10;;;;;;;-1.47;90.11;97012.73;107557;1273;43321;-73
2022/03/05 06:45:32;;;;;;;43.20;29.20;;;;;;;-1.46;90.00;97016.58;107558;1273;37702;-73
2022/03/05 06:48:03;;;;;;;40.80;26.50;;;;;;;-1.44;90.37;97018.87;107606;1271;35703;-73
2022/03/05 06:50:34;;;;;;;41.40;28.20;;;;;;;-1.43;90.01;97021.91;107588;1273;38734;-74
2022/03/05 06:53:06;;;;;;;41.20;27.80;;;;;;;-1.42;89.97;97024.71;107500;1273;45768;-74
2022/03/05 06:55:37;;;;;;;40.00;27.50;;;;;;;-1.41;90.09;97025.61;107618;1273;41763;-74
2022/03/05 06:58:08;;;;;;;42.60;28.80;;;;;;;-1.41;89.86;97029.09;107645;1273;36323;-74
2022/03/05 07:00:39;;;;;;;46.00;30.10;;;;;;;-1.40;89.76;97028.64;107609;1273;36999;-74
2022/03/05 07:03:10;;;;;;;39.30;27.40;;;;;;;-1.39;89.79;97028.28;107570;1274;40191;-74
2022/03/05 07:05:42;;;;;;;42.30;29.70;;;;;;;-1.37;89.75;97031.36;107559;1273;36588;-74
2022/03/05 07:08:13;;;;;;;44.50;28.60;;;;;;;-1.36;89.79;97035.77;107558;1270;41947;-74
2022/03/05 07:10:44;;;;;;;45.90;29.10;;;;;;;-1.36;89.88;97037.45;107598;1273;44730;-74
2022/03/05 07:13:15;;;;;;;40.00;27.10;;;;;;;-1.34;89.78;97039.30;107549;1273;36082;-74
2022/03/05 07:15:47;;;;;;;44.00;28.80;;;;;;;-1.32;89.55;97037.30;107549;1273;41894;-74
2022/03/05 07:18:19;;;;;;;37.80;25.80;;;;;;;-1.30;89.62;97038.30;107509;1273;65933;-74
2022/03/05 07:20:50;;;;;;;40.50;25.60;;;;;;;-1.28;89.69;97038.91;107574;1273;50298;-73
2022/03/05 07:23:21;;;;;;;39.90;25.70;;;;;;;-1.24;89.63;97042.04;107566;1273;43524;-73
2022/03/05 07:25:53;;;;;;;42.20;26.70;;;;;;;-1.21;89.40;97037.25;107531;1273;51013;-74
2022/03/05 07:28:24;;;;;;;39.70;26.70;;;;;;;-1.21;89.25;97042.20;107659;1273;41086;-74
2022/03/05 07:30:56;;;;;;;40.00;28.60;;;;;;;-1.20;89.27;97043.98;107540;1273;35074;-74
2022/03/05 07:33:28;;;;;;;40.00;26.60;;;;;;;-1.19;89.14;97049.70;107570;1273;42599;-74
2022/03/05 07:35:59;;;;;;;40.10;27.70;;;;;;;-1.19;89.08;97048.86;107554;1273;37897;-74
2022/03/05 07:38:31;;;;;;;43.20;28.90;;;;;;;-1.18;89.04;97050.54;107540;1273;49373;-74
2022/03/05 07:41:03;;;;;;;42.00;27.20;;;;;;;-1.16;88.95;97053.50;107541;1273;36599;-74
2022/03/05 07:43:34;;;;;;;38.00;27.20;;;;;;;-1.15;88.89;97053.11;107601;1273;35116;-74
2022/03/05 07:46:06;;;;;;;41.40;26.90;;;;;;;-1.14;89.00;97054.51;107591;1273;42370;-73
2022/03/05 07:48:37;;;;;;;38.30;27.10;;;;;;;-1.10;88.90;97054.07;107638;1272;38301;-74
2022/03/05 07:51:08;;;;;;;38.40;25.90;;;;;;;-1.08;88.89;97056.55;107593;1273;40373;-73
2022/03/05 07:53:40;;;;;;;39.90;28.80;;;;;;;-1.06;88.72;97059.80;107633;1273;30703;-74
2022/03/05 07:56:12;;;;;;;37.20;26.20;;;;;;;-1.03;88.52;97059.38;107581;1273;34112;-74
2022/03/05 07:58:43;;;;;;;39.90;26.70;;;;;;;-1.01;88.34;97061.34;107573;1273;44715;-74
2022/03/05 08:01:15;;;;;;;36.20;26.70;;;;;;;-1.03;88.42;97063.09;107531;1273;44480;-74
2022/03/05 08:03:47;;;;;;;38.50;26.00;;;;;;;-1.01;88.42;97062.22;107607;1273;38642;-73
2022/03/05 08:06:20;;;;;;;39.20;26.70;;;;;;;-0.97;88.14;97063.96;107527;1273;51989;-74
2022/03/05 08:08:52;;;;;;;37.20;26.30;;;;;;;-0.94;88.37;97068.83;107539;1273;45096;-74
2022/03/05 08:11:24;;;;;;;36.60;26.00;;;;;;;-0.96;88.09;97069.02;107548;1272;131351;-74
2022/03/05 08:13:57;;;;;;;38.50;25.90;;;;;;;-0.98;87.93;97074.95;107579;1273;41818;-73
2022/03/05 08:16:28;;;;;;;33.70;24.70;;;;;;;-0.97;87.92;97072.42;107502;1273;41918;-73
2022/03/05 08:19:02;;;;;;;36.00;26.10;;;;;;;-0.95;87.84;97077.83;107523;1274;44756;-73
2022/03/05 08:21:34;;;;;;;39.40;27.00;;;;;;;-0.88;87.82;97073.36;107568;1273;46528;-73
2022/03/05 08:24:08;;;;;;;38.70;26.60;;;;;;;-0.84;87.67;97076.75;107538;1272;41085;-73
2022/03/05 08:26:40;;;;;;;38.40;25.40;;;;;;;-0.79;87.77;97079.69;107624;1273;40585;-73
2022/03/05 08:29:11;;;;;;;38.60;26.90;;;;;;;-0.73;87.65;97079.74;107533;1273;42676;-74
2022/03/05 08:31:43;;;;;;;34.10;24.60;;;;;;;-0.73;87.52;97081.63;107486;1273;44512;-73
2022/03/05 08:34:15;;;;;;;33.80;23.70;;;;;;;-0.70;87.64;97078.88;107543;1274;47751;-73
2022/03/05 08:36:48;;;;;;;32.70;23.90;;;;;;;-0.63;87.41;97082.19;107545;1274;47462;-73
2022/03/05 08:39:19;;;;;;;32.70;21.80;;;;;;;-0.54;87.39;97083.70;107543;1273;41607;-73
2022/03/05 08:41:51;;;;;;;32.00;19.70;;;;;;;-0.50;86.86;97084.31;107514;1273;33367;-74
2022/03/05 08:44:23;;;;;;;27.70;20.50;;;;;;;-0.47;86.96;97080.83;107544;1273;28129;-74
2022/03/05 08:46:54;;;;;;;28.60;19.50;;;;;;;-0.46;86.48;97088.80;107585;1271;29906;-73
2022/03/05 08:49:25;;;;;;;30.80;20.50;;;;;;;-0.42;86.48;97093.06;107564;1273;30120;-73
2022/03/05 08:51:57;;;;;;;53.40;35.30;;;;;;;-0.36;86.59;97088.28;107595;1273;31041;-73
2022/03/05 08:54:28;;;;;;;29.90;23.50;;;;;;;-0.21;86.56;97086.45;107592;1273;30325;-73
2022/03/05 08:57:00;;;;;;;35.20;27.00;;;;;;;-0.01;86.51;97091.61;107617;1273;41617;-74
2022/03/05 08:59:32;;;;;;;33.00;24.90;;;;;;;0.22;86.04;97091.14;107571;1273;33198;-73
2022/03/05 09:02:05;;;;;;;36.30;25.30;;;;;;;0.49;85.90;97093.06;107547;1273;61248;-73
2022/03/05 09:04:36;;;;;;;29.20;21.60;;;;;;;0.77;85.42;97095.59;107612;1273;40636;-73
2022/03/05 09:07:09;;;;;;;37.40;25.40;;;;;;;1.04;84.79;97097.45;107570;1273;40884;-73
2022/03/05 09:09:40;;;;;;;28.70;19.80;;;;;;;1.19;83.97;97102.23;107613;1273;34179;-73
2022/03/05 09:12:12;;;;;;;27.20;21.20;;;;;;;1.12;83.44;97100.64;107572;1273;41808;-74
2022/03/05 09:14:46;;;;;;;24.90;18.40;;;;;;;1.24;82.96;97102.77;107601;1272;37948;-73
2022/03/05 09:17:18;;;;;;;26.00;19.40;;;;;;;1.22;82.62;97104.89;107583;1271;41942;-73
2022/03/05 09:19:50;;;;;;;24.90;17.80;;;;;;;1.39;82.97;97101.27;107568;1273;54167;-73
2022/03/05 09:22:21;;;;;;;27.90;20.30;;;;;;;1.57;82.03;97102.46;107542;1272;46994;-73
2022/03/05 09:24:53;;;;;;;22.80;16.60;;;;;;;1.97;81.97;97098.97;107512;1273;48844;-73
2022/03/05 09:27:24;;;;;;;21.80;16.10;;;;;;;2.09;81.11;97098.85;107569;1272;49707;-73
2022/03/05 09:29:56;;;;;;;20.40;15.00;;;;;;;2.30;80.58;97103.80;107582;1271;39140;-73
2022/03/05 09:32:28;;;;;;;19.40;14.30;;;;;;;2.67;80.18;97099.14;107477;1272;37484;-73
2022/03/05 09:35:00;;;;;;;15.80;11.60;;;;;;;2.69;78.73;97097.15;107537;1273;32207;-73
2022/03/05 09:37:34;;;;;;;16.40;11.60;;;;;;;2.38;75.92;97099.44;107697;1272;33025;-73
2022/03/05 09:40:08;;;;;;;13.50;9.80;;;;;;;2.22;75.30;97097.80;107559;1273;37922;-73
2022/03/05 09:42:43;;;;;;;16.20;11.20;;;;;;;2.23;73.40;97098.59;107624;1273;28946;-73
2022/03/05 09:45:16;;;;;;;15.90;9.90;;;;;;;2.42;74.71;97097.23;107594;1273;38939;-73
2022/03/05 09:47:48;;;;;;;12.40;9.10;;;;;;;2.66;72.09;97097.34;107583;1273;46048;-73
2022/03/05 09:50:20;;;;;;;14.80;10.40;;;;;;;2.14;69.22;97099.62;107570;1272;39988;-73
2022/03/05 09:52:51;;;;;;;14.80;10.50;;;;;;;1.78;70.77;97098.52;107553;1273;38791;-73
2022/03/05 09:55:23;;;;;;;13.30;9.50;;;;;;;1.59;69.93;97105.66;107596;1272;36758;-73
2022/03/05 09:57:57;;;;;;;16.70;9.50;;;;;;;1.00;68.56;97101.16;107611;1272;31751;-73
2022/03/05 10:00:30;;;;;;;16.20;11.80;;;;;;;0.50;69.29;97102.70;107614;1273;32517;-73
2022/03/05 10:03:06;;;;;;;19.30;10.60;;;;;;;0.26;69.89;97104.78;107617;1272;37145;-73
2022/03/05 10:05:40;;;;;;;16.70;11.00;;;;;;;-0.04;70.22;97105.33;107607;1273;33693;-73
2022/03/05 10:08:15;;;;;;;16.00;10.90;;;;;;;-0.27;70.90;97109.98;107590;1274;32309;-74
2022/03/05 10:10:49;;;;;;;19.50;11.90;;;;;;;-0.34;71.97;97112.13;107645;1273;34901;-73
2022/03/05 10:13:28;;;;;;;15.40;11.80;;;;;;;-0.31;73.40;97113.68;107573;1273;43854;-73
2022/03/05 10:16:01;;;;;;;16.50;10.10;;;;;;;-0.26;73.67;97115.77;107518;1273;47738;-73
2022/03/05 10:18:35;;;;;;;15.20;10.20;;;;;;;-0.28;73.67;97110.89;107574;1273;46827;-73
2022/03/05 10:21:09;;;;;;;14.30;10.20;;;;;;;-0.24;74.35;97116.80;107694;1273;73951;-73
2022/03/05 10:23:47;;;;;;;16.10;11.10;;;;;;;-0.24;74.53;97115.89;107588;1272;35681;-74
2022/03/05 10:26:21;;;;;;;16.60;11.40;;;;;;;-0.24;74.83;97115.56;107591;1272;37075;-73
2022/03/05 10:28:53;;;;;;;16.90;11.20;;;;;;;-0.26;74.98;97121.29;107646;1273;31399;-73
2022/03/05 10:31:25;;;;;;;17.80;11.50;;;;;;;-0.24;75.46;97117.48;107591;1273;33165;-73
2022/03/05 10:33:59;;;;;;;18.90;11.60;;;;;;;-0.21;75.63;97116.48;107619;1272;40833;-73
2022/03/05 10:36:31;;;;;;;13.90;10.80;;;;;;;-0.15;75.90;97113.80;107604;1273;29903;-73
2022/03/05 10:39:03;;;;;;;16.50;11.20;;;;;;;-0.11;75.77;97110.54;107550;1273;39646;-73
2022/03/05 10:41:37;;;;;;;14.60;10.60;;;;;;;-0.07;75.89;97112.25;107536;1273;41047;-73
2022/03/05 10:44:11;;;;;;;18.10;11.50;;;;;;;-0.02;76.10;97112.30;107651;1273;32470;-73
2022/03/05 10:46:46;;;;;;;14.40;10.40;;;;;;;0.03;76.02;97112.23;107643;1273;36560;-73
2022/03/05 10:49:20;;;;;;;14.70;10.40;;;;;;;0.09;76.06;97111.59;107607;1273;45746;-73
2022/03/05 10:51:54;;;;;;;15.20;10.00;;;;;;;0.16;75.89;97117.46;107589;1272;40615;-73
2022/03/05 10:54:29;;;;;;;15.70;9.60;;;;;;;0.17;75.70;97112.81;107619;1273;37256;-73
2022/03/05 10:57:10;;;;;;;12.20;8.50;;;;;;;0.11;75.31;97110.34;107614;1272;30237;-73
2022/03/05 10:59:41;;;;;;;;;;;;;;;0.09;75.34;97115.36;107656;1273;34586;-74
2022/03/05 11:02:14;;;;;;;13.30;8.40;;;;;;;0.10;75.43;97113.67;107584;1273;33300;-74
2022/03/05 11:04:46;;;;;;;14.90;9.00;;;;;;;0.13;75.15;97114.83;107700;1273;28851;-73
2022/03/05 11:07:19;;;;;;;13.80;8.90;;;;;;;0.14;75.38;97114.05;107605;1273;33616;-73
2022/03/05 11:09:54;;;;;;;13.00;8.70;;;;;;;0.17;75.09;97114.50;107633;1273;33514;-73
2022/03/05 11:12:25;;;;;;;14.30;8.70;;;;;;;0.18;74.83;97113.73;107611;1273;35702;-73
2022/03/05 11:14:57;;;;;;;13.10;8.20;;;;;;;0.20;74.89;97109.04;107605;1273;35979;-73
2022/03/05 11:17:28;;;;;;;13.80;8.20;;;;;;;0.19;74.36;97107.99;107533;1273;52445;-73
2022/03/05 11:20:00;;;;;;;11.60;6.50;;;;;;;0.23;74.52;97108.67;107592;1273;41333;-73
2022/03/05 11:22:33;;;;;;;11.40;6.30;;;;;;;0.25;73.86;97105.82;107594;1273;35547;-73
2022/03/05 11:25:04;;;;;;;11.10;5.90;;;;;;;0.26;73.60;97106.73;107617;1273;31812;-73
2022/03/05 11:27:38;;;;;;;6.90;4.10;;;;;;;0.26;72.79;97104.70;107626;1273;37213;-73
2022/03/05 11:30:12;;;;;;;7.10;4.20;;;;;;;0.25;72.04;97108.63;107628;1273;28343;-73
2022/03/05 11:32:43;;;;;;;9.70;5.60;;;;;;;0.27;71.96;97113.73;107579;1273;40781;-73
2022/03/05 11:35:28;;;;;;;9.00;4.80;;;;;;;0.34;72.22;97108.64;107597;1273;36839;-73